createdAt,value
2023-04-09T00:01:37.526Z,18.93
2023-04-09T00:04:04.111Z,18.80
2023-04-09T00:06:31.491Z,19.00
2023-04-09T00:08:57.978Z,18.47
2023-04-09T00:11:24.455Z,16.70
2023-04-09T00:13:50.933Z,16.77
2023-04-09T00:16:18.052Z,17.07
2023-04-09T00:18:44.534Z,18.50
2023-04-09T00:21:11.124Z,17.90
2023-04-09T00:23:37.836Z,17.80
2023-04-09T00:26:04.586Z,16.97
2023-04-09T00:28:31.279Z,17.87
2023-04-09T00:30:58.082Z,17.03
2023-04-09T00:33:24.782Z,16.70
2023-04-09T00:35:51.393Z,17.20
2023-04-09T00:38:18.398Z,18.33
2023-04-09T00:40:48.409Z,16.87
2023-04-09T00:43:14.844Z,16.87
2023-04-09T00:45:41.592Z,18.30
2023-04-09T00:48:08.671Z,18.00
2023-04-09T00:50:35.282Z,19.00
2023-04-09T00:53:01.847Z,17.47
2023-04-09T00:55:28.942Z,17.93
2023-04-09T00:57:55.436Z,19.13
2023-04-09T01:00:21.901Z,17.00
2023-04-09T01:02:49.159Z,19.50
2023-04-09T01:05:16.511Z,20.30
2023-04-09T01:07:49.542Z,18.20
2023-04-09T01:10:34.313Z,16.97
2023-04-09T01:13:21.188Z,18.60
2023-04-09T01:15:52.019Z,16.83
2023-04-09T01:18:22.438Z,17.67
2023-04-09T01:20:59.364Z,17.40
2023-04-09T01:23:46.802Z,17.80
2023-04-09T01:26:21.542Z,18.10
2023-04-09T01:28:56.534Z,18.30
2023-04-09T01:31:26.650Z,18.17
2023-04-09T01:33:53.313Z,18.30
2023-04-09T01:36:20.410Z,18.80
2023-04-09T01:38:48.967Z,18.53
2023-04-09T01:41:18.046Z,19.13
2023-04-09T01:43:45.760Z,20.53
2023-04-09T01:46:12.902Z,19.33
2023-04-09T01:48:39.561Z,18.90
2023-04-09T01:51:06.225Z,20.73
2023-04-09T01:53:32.654Z,18.53
2023-04-09T01:55:59.498Z,19.03
2023-04-09T01:58:26.023Z,20.33
2023-04-09T02:00:55.804Z,19.10
2023-04-09T02:03:29.321Z,20.83
2023-04-09T02:05:59.346Z,20.47
2023-04-09T02:08:28.663Z,19.77
2023-04-09T02:10:56.670Z,20.37
2023-04-09T02:13:23.908Z,20.23
2023-04-09T02:15:50.799Z,19.97
2023-04-09T02:18:24.030Z,20.93
2023-04-09T02:20:52.078Z,18.07
2023-04-09T02:23:18.808Z,19.50
2023-04-09T02:25:45.508Z,19.77
2023-04-09T02:28:11.956Z,20.13
2023-04-09T02:30:38.502Z,20.37
2023-04-09T02:33:05.522Z,22.53
2023-04-09T02:35:32.362Z,20.80
2023-04-09T02:37:59.550Z,20.73
2023-04-09T02:40:26.588Z,20.23
2023-04-09T02:42:53.354Z,18.97
2023-04-09T02:45:19.801Z,19.83
2023-04-09T02:47:46.295Z,19.17
2023-04-09T02:50:12.936Z,21.40
2023-04-09T02:52:46.841Z,20.97
2023-04-09T02:55:13.901Z,20.20
2023-04-09T02:57:40.908Z,21.27
2023-04-09T03:00:07.776Z,22.40
2023-04-09T03:02:34.454Z,21.30
2023-04-09T03:05:01.257Z,20.57
2023-04-09T03:07:27.721Z,22.63
2023-04-09T03:09:54.283Z,21.23
2023-04-09T03:12:20.684Z,21.30
2023-04-09T03:14:47.147Z,23.07
2023-04-09T03:17:13.877Z,20.80
2023-04-09T03:19:40.418Z,22.23
2023-04-09T03:22:07.023Z,21.50
2023-04-09T03:24:34.156Z,21.30
2023-04-09T03:27:03.598Z,22.50
2023-04-09T03:29:32.074Z,22.83
2023-04-09T03:32:00.146Z,21.07
2023-04-09T03:34:26.572Z,21.70
2023-04-09T03:36:56.177Z,20.63
2023-04-09T03:39:25.884Z,20.33
2023-04-09T03:41:53.018Z,22.90
2023-04-09T03:44:19.421Z,22.23
2023-04-09T03:46:59.804Z,21.17
2023-04-09T03:49:27.689Z,21.97
2023-04-09T03:51:58.066Z,21.43
2023-04-09T03:54:30.552Z,22.90
2023-04-09T03:56:57.915Z,20.30
2023-04-09T03:59:24.973Z,22.07
2023-04-09T04:01:51.806Z,20.17
2023-04-09T04:04:21.324Z,21.70
2023-04-09T04:06:56.625Z,20.50
2023-04-09T04:09:32.912Z,20.90
2023-04-09T04:12:04.748Z,22.10
2023-04-09T04:14:48.899Z,20.80
2023-04-09T04:17:24.833Z,21.33
2023-04-09T04:19:52.503Z,23.10
2023-04-09T04:22:19.715Z,21.90
2023-04-09T04:24:49.872Z,19.37
2023-04-09T04:27:19.819Z,20.07
2023-04-09T04:29:46.994Z,20.17
2023-04-09T04:32:23.413Z,21.50
2023-04-09T04:34:51.491Z,20.47
2023-04-09T04:37:22.944Z,20.17
2023-04-09T04:39:51.979Z,20.70
2023-04-09T04:42:18.724Z,19.80
2023-04-09T04:44:46.116Z,19.97
2023-04-09T04:47:26.814Z,19.70
2023-04-09T04:49:53.539Z,20.53
2023-04-09T04:52:21.450Z,19.43
2023-04-09T04:54:51.187Z,19.73
2023-04-09T04:57:22.084Z,19.30
2023-04-09T04:59:48.515Z,19.93
2023-04-09T05:02:16.818Z,18.13
2023-04-09T05:05:00.558Z,18.50
2023-04-09T05:07:34.348Z,19.63
2023-04-09T05:10:00.920Z,18.53
2023-04-09T05:12:32.910Z,17.00
2023-04-09T05:15:00.415Z,19.27
2023-04-09T05:17:27.037Z,17.53
2023-04-09T05:19:53.702Z,17.73
2023-04-09T05:22:27.099Z,20.00
2023-04-09T05:24:54.093Z,19.47
2023-04-09T05:27:22.135Z,18.07
2023-04-09T05:29:50.786Z,19.23
2023-04-09T05:32:17.447Z,17.73
2023-04-09T05:34:44.259Z,17.60
2023-04-09T05:37:10.870Z,16.97
2023-04-09T05:39:38.042Z,17.30
2023-04-09T05:42:04.532Z,16.40
2023-04-09T05:44:57.560Z,16.37
2023-04-09T05:47:24.386Z,15.90
2023-04-09T05:50:05.284Z,14.93
2023-04-09T05:52:32.404Z,16.53
2023-04-09T05:54:59.115Z,15.17
2023-04-09T05:57:38.604Z,15.60
2023-04-09T06:00:06.409Z,15.50
2023-04-09T06:02:43.001Z,13.70
2023-04-09T06:05:09.849Z,14.23
2023-04-09T06:07:36.958Z,14.33
2023-04-09T06:10:03.629Z,14.10
2023-04-09T06:12:30.250Z,12.87
2023-04-09T06:14:56.737Z,12.70
2023-04-09T06:17:23.180Z,14.13
2023-04-09T06:19:49.631Z,13.40
2023-04-09T06:22:16.335Z,12.10
2023-04-09T06:24:42.758Z,12.37
2023-04-09T06:27:09.409Z,13.30
2023-04-09T06:29:35.997Z,13.33
2023-04-09T06:32:02.924Z,12.80
2023-04-09T06:34:29.444Z,12.47
2023-04-09T06:36:56.225Z,11.60
2023-04-09T06:39:22.881Z,12.80
2023-04-09T06:41:49.646Z,13.47
2023-04-09T06:44:37.107Z,11.57
2023-04-09T06:47:03.899Z,13.50
2023-04-09T06:49:30.355Z,13.33
2023-04-09T06:51:57.016Z,12.97
2023-04-09T06:54:23.754Z,12.30
2023-04-09T06:56:50.211Z,12.90
2023-04-09T06:59:16.772Z,11.80
2023-04-09T07:01:43.383Z,12.23
2023-04-09T07:04:10.061Z,11.97
2023-04-09T07:06:36.820Z,12.60
2023-04-09T07:09:03.323Z,12.50
2023-04-09T07:11:30.156Z,11.83
2023-04-09T07:13:56.874Z,10.90
2023-04-09T07:16:23.639Z,12.47
2023-04-09T07:18:50.601Z,12.10
2023-04-09T07:21:17.424Z,11.57
2023-04-09T07:23:43.917Z,11.70
2023-04-09T07:26:10.442Z,11.83
2023-04-09T07:28:36.941Z,11.90
2023-04-09T07:31:03.741Z,11.73
2023-04-09T07:33:30.249Z,11.60
2023-04-09T07:35:57.652Z,13.07
2023-04-09T07:38:24.298Z,12.53
2023-04-09T07:40:51.055Z,11.93
2023-04-09T07:43:17.905Z,11.87
2023-04-09T07:45:44.513Z,11.13
2023-04-09T07:48:11.030Z,11.97
2023-04-09T07:50:38.041Z,11.90
2023-04-09T07:53:05.276Z,12.77
2023-04-09T07:55:31.713Z,12.43
2023-04-09T07:57:58.132Z,12.90
2023-04-09T08:00:24.716Z,12.47
2023-04-09T08:02:51.575Z,13.00
2023-04-09T08:05:18.306Z,12.17
2023-04-09T08:07:44.776Z,13.50
2023-04-09T08:10:15.064Z,12.33
2023-04-09T08:12:41.941Z,11.50
2023-04-09T08:15:08.892Z,12.43
2023-04-09T08:17:37.193Z,12.30
2023-04-09T08:20:04.418Z,11.97
2023-04-09T08:22:31.267Z,12.47
2023-04-09T08:25:00.219Z,12.90
2023-04-09T08:27:28.053Z,11.57
2023-04-09T08:29:54.601Z,12.00
2023-04-09T08:32:21.444Z,11.70
2023-04-09T08:34:47.890Z,11.80
2023-04-09T08:37:14.265Z,10.00
2023-04-09T08:39:40.699Z,11.67
2023-04-09T08:42:08.159Z,11.90
2023-04-09T08:44:34.838Z,11.60
2023-04-09T08:47:01.687Z,11.70
2023-04-09T08:49:28.199Z,12.93
2023-04-09T08:51:54.729Z,11.40
2023-04-09T08:54:21.584Z,11.10
2023-04-09T08:56:48.195Z,12.60
2023-04-09T08:59:20.799Z,11.87
2023-04-09T09:01:52.563Z,11.47
2023-04-09T09:04:19.485Z,12.33
2023-04-09T09:06:46.531Z,11.93
2023-04-09T09:09:13.735Z,11.97
2023-04-09T09:11:46.905Z,12.23
2023-04-09T09:14:14.279Z,12.00
2023-04-09T09:16:44.924Z,12.20
2023-04-09T09:19:26.925Z,10.87
2023-04-09T09:22:03.939Z,12.13
2023-04-09T09:24:32.472Z,11.63
2023-04-09T09:26:59.086Z,11.83
2023-04-09T09:29:25.912Z,12.00
2023-04-09T09:31:53.870Z,11.00
2023-04-09T09:34:21.211Z,12.70
2023-04-09T09:36:47.939Z,11.73
2023-04-09T09:39:17.211Z,12.40
2023-04-09T09:41:44.352Z,12.00
2023-04-09T09:44:11.578Z,12.70
2023-04-09T09:46:39.400Z,11.77
2023-04-09T09:49:06.739Z,11.67
2023-04-09T09:51:33.995Z,11.10
2023-04-09T09:54:01.184Z,11.73
2023-04-09T09:56:32.598Z,10.97
2023-04-09T09:59:04.281Z,12.30
2023-04-09T10:01:30.820Z,11.50
2023-04-09T10:03:59.829Z,12.20
2023-04-09T10:06:27.529Z,12.53
2023-04-09T10:08:57.651Z,13.53
2023-04-09T10:11:24.683Z,12.30
2023-04-09T10:13:53.888Z,12.17
2023-04-09T10:16:23.050Z,12.40
2023-04-09T10:18:49.833Z,11.50
2023-04-09T10:21:32.365Z,11.47
2023-04-09T10:23:59.766Z,12.97
2023-04-09T10:26:30.837Z,10.93
2023-04-09T10:29:11.488Z,11.90
2023-04-09T10:31:56.619Z,11.47
2023-04-09T10:34:24.300Z,11.93
2023-04-09T10:36:53.502Z,11.90
2023-04-09T10:39:20.866Z,11.90
2023-04-09T10:41:49.305Z,12.50
2023-04-09T10:44:27.012Z,12.60
2023-04-09T10:46:56.585Z,10.87
2023-04-09T10:49:24.280Z,10.57
2023-04-09T10:52:11.944Z,11.43
2023-04-09T10:54:43.637Z,11.27
2023-04-09T10:57:10.775Z,11.27
2023-04-09T10:59:47.628Z,10.53
2023-04-09T11:02:32.881Z,11.80
2023-04-09T11:05:07.007Z,10.27
2023-04-09T11:07:35.230Z,10.40
2023-04-09T11:10:01.656Z,12.10
2023-04-09T11:12:28.118Z,9.90
2023-04-09T11:14:54.563Z,10.87
2023-04-09T11:17:21.219Z,10.17
2023-04-09T11:19:47.949Z,11.20
2023-04-09T11:22:15.298Z,10.37
2023-04-09T11:24:46.615Z,10.73
2023-04-09T11:27:13.244Z,11.30
2023-04-09T11:29:39.680Z,11.27
2023-04-09T11:32:06.641Z,11.77
2023-04-09T11:34:33.072Z,12.60
2023-04-09T11:37:02.101Z,11.97
2023-04-09T11:39:28.580Z,11.40
2023-04-09T11:41:55.085Z,10.87
2023-04-09T11:44:22.455Z,11.97
2023-04-09T11:46:49.172Z,11.03
2023-04-09T11:49:16.342Z,10.77
2023-04-09T11:51:42.864Z,12.47
2023-04-09T11:54:11.494Z,10.87
2023-04-09T11:56:38.277Z,9.70
2023-04-09T11:59:04.878Z,9.87
2023-04-09T12:01:34.643Z,10.80
2023-04-09T12:04:01.786Z,11.77
2023-04-09T12:06:28.735Z,11.47
2023-04-09T12:08:58.701Z,11.33
2023-04-09T12:11:29.777Z,12.60
2023-04-09T12:13:59.862Z,11.80
2023-04-09T12:16:26.325Z,12.00
2023-04-09T12:18:55.727Z,9.47
2023-04-09T12:21:27.452Z,11.83
2023-04-09T12:23:53.873Z,10.23
2023-04-09T12:26:20.907Z,10.53
2023-04-09T12:28:47.508Z,11.77
2023-04-09T12:31:13.949Z,10.80
2023-04-09T12:33:41.028Z,10.90
2023-04-09T12:36:07.789Z,10.87
2023-04-09T12:38:34.897Z,13.10
2023-04-09T12:41:02.340Z,12.23
2023-04-09T12:43:28.768Z,12.40
2023-04-09T12:45:56.214Z,11.33
2023-04-09T12:48:22.693Z,12.67
2023-04-09T12:50:49.185Z,11.53
2023-04-09T12:53:16.068Z,12.37
2023-04-09T12:55:43.009Z,11.70
2023-04-09T12:58:09.473Z,12.40
2023-04-09T13:00:35.926Z,12.20
2023-04-09T13:03:02.471Z,12.67
2023-04-09T13:05:31.290Z,14.13
2023-04-09T13:07:57.938Z,12.93
2023-04-09T13:10:24.818Z,12.07
2023-04-09T13:12:51.522Z,13.03
2023-04-09T13:15:17.926Z,12.77
2023-04-09T13:17:44.366Z,13.17
2023-04-09T13:20:11.160Z,13.50
2023-04-09T13:22:37.726Z,12.97
2023-04-09T13:25:04.747Z,12.63
2023-04-09T13:27:31.375Z,13.10
2023-04-09T13:29:57.835Z,12.47
2023-04-09T13:32:24.399Z,12.77
2023-04-09T13:34:51.107Z,11.80
2023-04-09T13:37:17.535Z,14.87
2023-04-09T13:39:44.189Z,13.70
2023-04-09T13:42:13.996Z,14.60
2023-04-09T13:44:42.297Z,14.63
2023-04-09T13:47:11.080Z,14.63
2023-04-09T13:49:37.553Z,14.97
2023-04-09T13:52:05.833Z,15.60
2023-04-09T13:54:33.200Z,17.30
2023-04-09T13:56:59.678Z,16.73
2023-04-09T13:59:26.175Z,17.20
2023-04-09T14:01:52.742Z,17.80
2023-04-09T14:04:19.398Z,17.77
2023-04-09T14:06:46.203Z,16.70
2023-04-09T14:09:13.054Z,17.50
2023-04-09T14:11:39.755Z,16.50
2023-04-09T14:14:06.652Z,17.40
2023-04-09T14:16:33.494Z,16.23
2023-04-09T14:19:00.131Z,17.10
2023-04-09T14:21:26.946Z,16.20
2023-04-09T14:23:54.020Z,16.60
2023-04-09T14:26:22.215Z,17.10
2023-04-09T14:28:51.149Z,15.20
2023-04-09T14:31:21.263Z,15.20
2023-04-09T14:33:48.862Z,15.90
2023-04-09T14:36:15.799Z,16.13
2023-04-09T14:38:42.371Z,16.50
2023-04-09T14:41:09.785Z,15.43
2023-04-09T14:43:36.465Z,14.50
2023-04-09T14:46:04.025Z,15.53
2023-04-09T14:48:31.226Z,15.60
2023-04-09T14:50:58.163Z,14.83
2023-04-09T14:53:25.252Z,15.43
2023-04-09T14:55:52.297Z,16.30
2023-04-09T14:58:18.759Z,17.07
2023-04-09T15:00:45.569Z,17.70
2023-04-09T15:03:12.764Z,16.67
2023-04-09T15:05:39.355Z,17.10
2023-04-09T15:08:05.873Z,16.43
2023-04-09T15:10:32.334Z,16.20
2023-04-09T15:12:59.447Z,14.07
2023-04-09T15:15:26.635Z,14.30
2023-04-09T15:17:53.626Z,14.13
2023-04-09T15:20:20.161Z,15.57
2023-04-09T15:22:46.922Z,15.37
2023-04-09T15:25:14.442Z,15.50
2023-04-09T15:27:41.224Z,15.40
2023-04-09T15:30:08.057Z,16.40
2023-04-09T15:32:34.892Z,16.70
2023-04-09T15:35:01.396Z,16.70
2023-04-09T15:37:27.796Z,15.83
2023-04-09T15:39:54.481Z,15.60
2023-04-09T15:42:22.881Z,16.27
2023-04-09T15:44:49.942Z,18.43
2023-04-09T15:47:16.594Z,16.10
2023-04-09T15:49:43.070Z,17.20
2023-04-09T15:52:09.527Z,15.80
2023-04-09T15:54:35.953Z,17.50
2023-04-09T15:57:02.396Z,18.03
2023-04-09T15:59:28.806Z,19.27
2023-04-09T16:01:55.626Z,18.27
2023-04-09T16:04:22.248Z,17.90
2023-04-09T16:06:49.231Z,17.70
2023-04-09T16:09:15.634Z,17.83
2023-04-09T16:11:42.238Z,17.30
2023-04-09T16:14:10.918Z,18.50
2023-04-09T16:16:38.657Z,17.47
2023-04-09T16:19:05.236Z,17.17
2023-04-09T16:21:32.110Z,16.47
2023-04-09T16:24:00.405Z,17.20
2023-04-09T16:26:26.826Z,17.10
2023-04-09T16:28:53.439Z,15.80
2023-04-09T16:31:20.412Z,15.80
2023-04-09T16:33:46.900Z,16.80
2023-04-09T16:36:13.349Z,16.97
2023-04-09T16:38:39.817Z,15.73
2023-04-09T16:41:06.454Z,16.60
2023-04-09T16:43:32.964Z,15.30
2023-04-09T16:45:59.739Z,16.17
2023-04-09T16:48:26.212Z,18.30
2023-04-09T16:50:52.641Z,16.60
2023-04-09T16:53:19.102Z,17.70
2023-04-09T16:55:45.501Z,17.87
2023-04-09T16:58:11.930Z,16.70
2023-04-09T17:00:39.900Z,18.03
2023-04-09T17:03:06.747Z,16.67
2023-04-09T17:05:33.827Z,18.67
2023-04-09T17:08:00.829Z,18.00
2023-04-09T17:10:28.130Z,17.03
2023-04-09T17:12:54.720Z,17.40
2023-04-09T17:15:22.556Z,17.43
2023-04-09T17:17:51.189Z,15.97
2023-04-09T17:20:18.160Z,17.07
2023-04-09T17:22:46.542Z,18.50
2023-04-09T17:25:12.932Z,15.93
2023-04-09T17:27:39.660Z,17.23
2023-04-09T17:30:06.637Z,17.00
2023-04-09T17:32:33.253Z,17.50
2023-04-09T17:35:00.185Z,17.63
2023-04-09T17:37:27.626Z,16.83
2023-04-09T17:39:54.465Z,16.77
2023-04-09T17:42:22.087Z,16.80
2023-04-09T17:44:48.877Z,16.47
2023-04-09T17:47:15.867Z,16.40
2023-04-09T17:49:42.455Z,16.30
2023-04-09T17:52:09.710Z,17.30
2023-04-09T17:54:36.599Z,17.90
2023-04-09T17:57:04.510Z,17.63
2023-04-09T17:59:31.946Z,17.40
2023-04-09T18:01:58.576Z,17.97
2023-04-09T18:04:25.764Z,18.40
2023-04-09T18:06:52.882Z,18.30
2023-04-09T18:09:19.416Z,18.20
2023-04-09T18:11:46.307Z,16.50
2023-04-09T18:14:12.800Z,17.43
2023-04-09T18:16:39.349Z,18.67
2023-04-09T18:19:06.529Z,17.93
2023-04-09T18:21:33.183Z,19.97
2023-04-09T18:23:59.894Z,18.60
2023-04-09T18:26:26.302Z,18.43
2023-04-09T18:28:53.018Z,19.00
2023-04-09T18:31:19.750Z,17.90
2023-04-09T18:33:46.711Z,18.20
2023-04-09T18:36:13.299Z,16.27
2023-04-09T18:38:40.576Z,16.53
2023-04-09T18:41:08.147Z,16.80
2023-04-09T18:43:35.568Z,16.40
2023-04-09T18:46:02.188Z,17.67
2023-04-09T18:48:28.583Z,17.00
2023-04-09T18:50:55.369Z,18.03
2023-04-09T18:53:21.775Z,17.77
2023-04-09T18:55:48.244Z,17.87
2023-04-09T18:58:15.634Z,19.03
2023-04-09T19:00:42.211Z,18.90
2023-04-09T19:03:09.141Z,19.83
2023-04-09T19:05:36.070Z,20.80
2023-04-09T19:08:04.161Z,20.70
2023-04-09T19:10:30.604Z,20.40
2023-04-09T19:12:57.046Z,19.53
2023-04-09T19:15:26.039Z,19.03
2023-04-09T19:17:52.812Z,19.10
2023-04-09T19:20:19.627Z,20.20
2023-04-09T19:22:47.873Z,20.40
2023-04-09T19:25:15.274Z,20.70
2023-04-09T19:27:41.754Z,21.00
2023-04-09T19:30:09.224Z,20.90
2023-04-09T19:32:36.055Z,20.10
2023-04-09T19:35:02.946Z,19.70
2023-04-09T19:37:30.569Z,18.97
2023-04-09T19:39:58.115Z,16.30
2023-04-09T19:42:24.930Z,16.80
2023-04-09T19:44:51.370Z,16.20
2023-04-09T19:47:17.855Z,16.13
2023-04-09T19:49:44.662Z,15.70
2023-04-09T19:52:11.080Z,12.87
2023-04-09T19:54:37.619Z,13.97
2023-04-09T19:57:04.864Z,13.70
2023-04-09T19:59:36.061Z,14.40
2023-04-09T20:02:02.775Z,14.70
2023-04-09T20:04:30.856Z,15.30
2023-04-09T20:06:57.560Z,14.93
2023-04-09T20:09:26.317Z,14.77
2023-04-09T20:11:54.122Z,15.60
2023-04-09T20:14:20.984Z,16.97
2023-04-09T20:16:47.904Z,18.20
2023-04-09T20:19:14.482Z,15.10
2023-04-09T20:21:41.857Z,13.67
2023-04-09T20:24:08.312Z,14.50
2023-04-09T20:26:36.088Z,14.10
2023-04-09T20:29:02.602Z,14.43
2023-04-09T20:31:31.859Z,13.70
2023-04-09T20:33:58.290Z,15.10
2023-04-09T20:36:24.683Z,15.20
2023-04-09T20:38:51.276Z,13.73
2023-04-09T20:41:18.117Z,14.27
2023-04-09T20:43:44.543Z,15.40
2023-04-09T20:46:11.792Z,15.97
2023-04-09T20:48:39.042Z,15.47
2023-04-09T20:51:09.815Z,15.00
2023-04-09T20:53:36.592Z,14.13
2023-04-09T20:56:03.960Z,13.67
2023-04-09T20:58:31.446Z,15.00
2023-04-09T21:01:06.845Z,14.20
2023-04-09T21:03:34.774Z,14.30
2023-04-09T21:06:01.767Z,14.07
2023-04-09T21:08:29.123Z,15.63
2023-04-09T21:10:55.983Z,14.80
2023-04-09T21:13:23.286Z,15.63
2023-04-09T21:15:49.829Z,14.80
2023-04-09T21:18:16.651Z,14.87
2023-04-09T21:20:44.678Z,16.50
2023-04-09T21:23:11.237Z,17.33
2023-04-09T21:25:37.669Z,16.40
2023-04-09T21:28:04.375Z,16.07
2023-04-09T21:30:32.199Z,16.23
2023-04-09T21:33:01.016Z,15.43
2023-04-09T21:35:27.448Z,16.97
2023-04-09T21:37:54.268Z,16.00
2023-04-09T21:40:20.768Z,16.13
2023-04-09T21:42:47.178Z,16.30
2023-04-09T21:45:13.565Z,15.47
2023-04-09T21:47:40.559Z,13.80
2023-04-09T21:50:08.400Z,14.47
2023-04-09T21:52:35.082Z,15.90
2023-04-09T21:55:01.492Z,17.20
2023-04-09T21:57:28.387Z,14.37
2023-04-09T21:59:54.868Z,14.30
2023-04-09T22:02:21.366Z,14.20
2023-04-09T22:04:47.954Z,14.60
2023-04-09T22:07:14.454Z,13.90
2023-04-09T22:09:40.949Z,14.60
2023-04-09T22:12:07.849Z,14.00
2023-04-09T22:14:34.258Z,15.27
2023-04-09T22:17:01.736Z,15.83
2023-04-09T22:19:29.425Z,15.43
2023-04-09T22:21:55.866Z,15.10
2023-04-09T22:24:30.163Z,16.70
2023-04-09T22:26:58.822Z,16.77
2023-04-09T22:29:26.188Z,17.07
2023-04-09T22:31:52.615Z,15.47
2023-04-09T22:34:21.129Z,16.47
2023-04-09T22:36:48.064Z,18.07
2023-04-09T22:39:14.457Z,15.57
2023-04-09T22:41:41.106Z,16.77
2023-04-09T22:44:09.371Z,17.33
2023-04-09T22:46:36.471Z,18.13
2023-04-09T22:49:05.280Z,17.00
2023-04-09T22:51:34.315Z,18.00
2023-04-09T22:54:01.934Z,17.20
2023-04-09T22:56:28.721Z,19.70
2023-04-09T22:58:55.555Z,18.13
2023-04-09T23:01:23.220Z,18.50
2023-04-09T23:03:50.061Z,19.30
2023-04-09T23:06:19.544Z,18.43
2023-04-09T23:08:46.633Z,20.80
2023-04-09T23:11:13.075Z,19.77
2023-04-09T23:13:39.790Z,19.30
2023-04-09T23:16:07.016Z,19.93
2023-04-09T23:18:34.481Z,19.67
2023-04-09T23:21:05.731Z,19.47
2023-04-09T23:23:32.466Z,20.60
2023-04-09T23:25:59.024Z,18.47
2023-04-09T23:28:25.621Z,19.13
2023-04-09T23:30:52.040Z,17.77
2023-04-09T23:33:19.041Z,18.90
2023-04-09T23:35:46.624Z,18.50
2023-04-09T23:38:13.114Z,20.20
2023-04-09T23:40:39.590Z,19.77
2023-04-09T23:43:06.452Z,19.57
2023-04-09T23:45:32.885Z,20.70
2023-04-09T23:47:59.380Z,22.30
2023-04-09T23:50:28.562Z,22.47
2023-04-09T23:52:59.700Z,20.40
2023-04-09T23:55:27.158Z,20.07
2023-04-09T23:57:53.757Z,21.57
